Time;durP1;ratioP1;P1;durP2;ratioP2;P2;SDS_P1;SDS_P2;PMS_P1;PMS_P2;Temp;Humidity;BMP_temperature;BMP_pressure;BME280_temperature;BME280_humidity;BME280_pressure;Samples;Min_cycle;Max_cycle;Signal;HPM_P1;HPM_P2
2022/12/19 00:01:37;;;;;;;49.23;25.80;;;;;;;2.60;56.77;98360.06;5054131;28;20562;-72
2022/12/19 00:04:06;;;;;;;49.10;26.30;;;;;;;2.70;56.49;98367.38;5056754;28;20219;-73
2022/12/19 00:06:32;;;;;;;55.37;28.23;;;;;;;2.74;56.36;98366.31;5032394;28;20797;-72
2022/12/19 00:08:59;;;;;;;52.03;28.03;;;;;;;2.78;55.84;98372.19;5056445;28;20443;-72
2022/12/19 00:11:25;;;;;;;49.50;26.83;;;;;;;2.68;55.91;98375.22;5062939;28;20246;-72
2022/12/19 00:13:50;;;;;;;56.33;28.30;;;;;;;2.82;56.01;98376.31;5057242;28;20425;-74
2022/12/19 00:16:21;;;;;;;55.70;27.57;;;;;;;2.86;55.84;98370.91;5056172;28;20421;-74
2022/12/19 00:18:47;;;;;;;60.50;28.40;;;;;;;2.89;55.72;98372.50;5057488;28;20269;-73
2022/12/19 00:21:14;;;;;;;53.90;26.40;;;;;;;2.94;55.96;98367.94;5058748;28;20513;-73
2022/12/19 00:23:40;;;;;;;53.03;27.80;;;;;;;3.04;55.53;98366.56;5060009;28;20453;-72
2022/12/19 00:26:07;;;;;;;50.53;26.67;;;;;;;3.09;55.37;98373.28;5058103;28;20913;-74
2022/12/19 00:28:33;;;;;;;52.47;26.93;;;;;;;3.14;55.59;98364.34;5061071;28;20692;-71
2022/12/19 00:31:02;;;;;;;53.10;27.00;;;;;;;3.15;55.54;98354.81;5058545;28;20426;-73
2022/12/19 00:33:28;;;;;;;51.10;26.40;;;;;;;3.12;55.16;98355.81;5056572;28;20198;-71
2022/12/19 00:36:04;;;;;;;52.70;27.33;;;;;;;3.17;55.77;98361.59;5059326;28;20433;-72
2022/12/19 00:38:29;;;;;;;53.30;25.57;;;;;;;3.17;55.60;98350.41;5053515;28;20572;-72
2022/12/19 00:41:08;;;;;;;59.23;28.97;;;;;;;3.13;56.09;98348.88;5058770;28;20413;-72
2022/12/19 00:43:33;;;;;;;48.73;26.60;;;;;;;3.13;55.70;98331.59;5047836;28;20564;-73
2022/12/19 00:46:04;;;;;;;51.50;26.47;;;;;;;3.20;56.00;98340.72;5065802;28;20420;-70
2022/12/19 00:48:30;;;;;;;50.50;25.83;;;;;;;3.28;55.81;98347.25;5052810;28;20203;-71
2022/12/19 00:51:01;;;;;;;50.63;26.47;;;;;;;3.32;55.59;98353.94;5055696;28;20418;-70
2022/12/19 00:53:26;;;;;;;49.30;25.80;;;;;;;3.34;55.79;98339.16;5062555;28;20422;-69
2022/12/19 00:55:51;;;;;;;49.00;25.77;;;;;;;3.24;56.21;98323.25;5057302;28;20524;-72
2022/12/19 00:58:17;;;;;;;46.80;24.60;;;;;;;3.21;55.82;98329.44;5061355;28;20273;-70
2022/12/19 01:00:42;;;;;;;51.17;26.27;;;;;;;3.22;55.64;98341.47;5054833;28;20275;-72
2022/12/19 01:03:08;;;;;;;52.90;27.27;;;;;;;3.16;56.13;98326.22;5058842;28;20210;-71
2022/12/19 01:05:33;;;;;;;53.10;26.47;;;;;;;3.03;56.06;98325.16;5054020;28;20179;-70
2022/12/19 01:07:59;;;;;;;54.10;27.00;;;;;;;3.01;56.20;98327.03;5060042;28;20206;-70
2022/12/19 01:10:24;;;;;;;50.93;26.87;;;;;;;2.98;56.09;98324.59;5061223;28;20711;-71
2022/12/19 01:12:49;;;;;;;52.63;26.37;;;;;;;2.92;56.55;98323.13;5056920;28;20252;-72
2022/12/19 01:15:19;;;;;;;47.10;24.97;;;;;;;3.04;56.52;98319.94;5060846;28;20187;-70
2022/12/19 01:17:45;;;;;;;55.07;27.40;;;;;;;3.05;55.96;98315.56;5054009;28;20202;-71
2022/12/19 01:20:13;;;;;;;52.10;27.20;;;;;;;3.15;55.85;98328.91;5060001;28;20453;-70
2022/12/19 01:22:38;;;;;;;55.03;26.70;;;;;;;3.16;55.99;98328.81;5054160;28;20488;-71
2022/12/19 01:25:04;;;;;;;48.67;25.57;;;;;;;3.10;56.04;98323.97;5059064;28;20925;-72
2022/12/19 01:27:30;;;;;;;49.10;25.63;;;;;;;3.18;56.32;98323.56;5046678;28;20187;-73
2022/12/19 01:29:55;;;;;;;48.00;24.67;;;;;;;3.19;56.23;98323.47;5058449;28;20928;-72
2022/12/19 01:32:22;;;;;;;51.93;26.63;;;;;;;3.17;56.28;98311.53;5045647;28;20205;-72
2022/12/19 01:34:47;;;;;;;56.73;25.73;;;;;;;3.13;56.47;98318.63;5024821;28;20221;-71
2022/12/19 01:37:16;;;;;;;49.40;25.47;;;;;;;3.02;56.25;98303.63;5054237;28;20417;-73
2022/12/19 01:39:41;;;;;;;51.93;26.57;;;;;;;2.87;56.57;98307.84;5056862;28;20203;-71
2022/12/19 01:42:15;;;;;;;56.70;27.47;;;;;;;2.82;56.96;98312.38;5059559;28;21090;-71
2022/12/19 01:45:14;;;;;;;48.13;25.97;;;;;;;2.98;56.90;98306.44;5055337;28;20289;-71
2022/12/19 01:47:50;;;;;;;55.30;25.63;;;;;;;2.96;56.86;98303.09;5038571;28;20496;-71
2022/12/19 01:50:41;;;;;;;52.40;27.17;;;;;;;2.83;57.05;98295.94;5060835;28;20790;-72
2022/12/19 01:53:08;;;;;;;52.50;26.67;;;;;;;2.89;57.23;98290.47;5047686;28;20418;-71
2022/12/19 01:55:35;;;;;;;50.97;26.17;;;;;;;2.86;56.91;98293.19;5052722;28;20436;-71
2022/12/19 01:58:01;;;;;;;56.10;27.20;;;;;;;2.90;57.36;98292.13;5054870;28;20502;-70
2022/12/19 02:00:26;;;;;;;55.43;26.37;;;;;;;2.95;56.80;98285.88;5051331;28;20835;-71
2022/12/19 02:03:04;;;;;;;59.83;27.50;;;;;;;3.00;57.16;98282.13;5056793;28;20214;-70
2022/12/19 02:05:30;;;;;;;56.50;26.97;;;;;;;2.97;56.78;98277.09;5051007;28;20229;-70
2022/12/19 02:07:56;;;;;;;54.13;27.43;;;;;;;2.97;57.24;98271.91;5057587;28;20464;-72
2022/12/19 02:10:21;;;;;;;54.27;27.17;;;;;;;3.06;57.10;98276.66;5058507;28;20953;-70
2022/12/19 02:12:47;;;;;;;48.60;26.10;;;;;;;3.09;56.73;98275.66;5053551;28;20190;-69
2022/12/19 02:15:13;;;;;;;52.83;26.60;;;;;;;3.08;57.03;98276.56;5056290;28;20187;-70
2022/12/19 02:18:02;;;;;;;52.57;26.70;;;;;;;3.19;57.17;98278.63;5059147;28;20518;-72
2022/12/19 02:20:58;;;;;;;49.03;26.60;;;;;;;3.16;57.17;98277.00;5055176;28;20410;-71
2022/12/19 02:23:44;;;;;;;51.37;25.83;;;;;;;3.29;57.41;98284.97;5053010;28;20825;-71
2022/12/19 02:26:43;;;;;;;53.23;26.40;;;;;;;3.34;56.61;98282.16;5054521;28;20799;-73
2022/12/19 02:29:17;;;;;;;49.17;24.60;;;;;;;3.30;56.26;98283.22;5050383;28;20434;-70
2022/12/19 02:31:50;;;;;;;51.53;27.23;;;;;;;3.35;56.51;98276.06;5051061;28;20512;-70
2022/12/19 02:34:43;;;;;;;53.07;28.33;;;;;;;3.34;56.71;98290.75;5048444;28;20424;-72
2022/12/19 02:37:17;;;;;;;52.80;27.10;;;;;;;3.31;56.14;98285.75;5058994;28;20441;-72
2022/12/19 02:39:49;;;;;;;52.07;27.30;;;;;;;3.19;56.80;98266.47;5060424;28;20448;-71
2022/12/19 02:42:20;;;;;;;54.60;29.70;;;;;;;3.14;57.11;98268.50;5053221;28;20523;-71
2022/12/19 02:44:49;;;;;;;54.60;28.10;;;;;;;3.08;57.61;98271.38;5054544;28;20433;-70
2022/12/19 02:47:14;;;;;;;53.57;29.77;;;;;;;3.03;57.81;98270.78;5052787;28;21058;-70
2022/12/19 02:49:40;;;;;;;50.80;27.37;;;;;;;3.13;57.76;98266.81;5052075;28;20537;-70
2022/12/19 02:52:09;;;;;;;55.00;28.87;;;;;;;3.09;57.95;98265.28;5055656;28;20258;-72
2022/12/19 02:54:35;;;;;;;57.13;26.87;;;;;;;3.02;58.57;98259.59;5046321;28;20443;-70
2022/12/19 02:57:14;;;;;;;55.23;28.37;;;;;;;3.06;59.05;98268.03;5036924;28;20491;-70
2022/12/19 02:59:42;;;;;;;53.33;26.90;;;;;;;3.19;58.60;98283.78;5052513;28;20445;-72
2022/12/19 03:02:20;;;;;;;49.17;26.20;;;;;;;3.27;58.72;98283.41;5053781;28;20461;-71
2022/12/19 03:04:58;;;;;;;52.37;26.93;;;;;;;3.32;59.14;98278.78;5057763;28;20421;-73
2022/12/19 03:07:42;;;;;;;51.03;25.97;;;;;;;3.31;59.39;98261.56;5062533;28;20515;-72
2022/12/19 03:10:14;;;;;;;52.63;26.30;;;;;;;3.37;59.56;98246.53;5036296;28;20962;-71
2022/12/19 03:12:47;;;;;;;45.93;24.50;;;;;;;3.44;59.27;98236.69;5052986;28;20425;-72
2022/12/19 03:15:13;;;;;;;52.57;26.37;;;;;;;3.28;59.64;98243.59;5058478;28;20468;-72
2022/12/19 03:17:38;;;;;;;50.93;26.67;;;;;;;3.42;59.61;98267.03;5050254;28;20506;-72
2022/12/19 03:20:12;;;;;;;49.27;24.90;;;;;;;3.40;59.75;98268.88;5058420;28;20186;-70
2022/12/19 03:22:38;;;;;;;47.30;24.17;;;;;;;3.44;60.28;98272.16;5044665;28;20230;-71
2022/12/19 03:25:04;;;;;;;44.40;24.17;;;;;;;3.52;60.10;98281.19;5064005;28;20767;-71
2022/12/19 03:27:32;;;;;;;54.07;26.40;;;;;;;3.57;60.05;98282.69;5052336;28;20198;-72
2022/12/19 03:30:07;;;;;;;43.93;24.00;;;;;;;3.60;60.32;98279.94;5037105;28;20253;-73
2022/12/19 03:32:33;;;;;;;47.90;24.20;;;;;;;3.59;60.50;98281.69;5056665;28;20429;-71
2022/12/19 03:35:03;;;;;;;49.37;23.53;;;;;;;3.73;60.13;98293.91;5055360;28;20432;-72
2022/12/19 03:37:30;;;;;;;46.70;24.17;;;;;;;3.81;60.17;98283.97;5055466;28;20426;-73
2022/12/19 03:40:02;;;;;;;49.80;25.37;;;;;;;3.84;60.35;98283.78;5057371;28;20449;-72
2022/12/19 03:45:17;;;;;;;49.00;23.63;;;;;;;4.00;60.39;98280.38;5061991;28;20928;-71
2022/12/19 03:47:49;;;;;;;45.00;24.63;;;;;;;4.08;60.42;98275.59;5055829;28;20501;-72
2022/12/19 03:50:15;;;;;;;47.40;24.40;;;;;;;4.13;60.43;98277.91;5060456;28;20515;-73
2022/12/19 03:53:07;;;;;;;49.37;24.83;;;;;;;4.13;59.73;98276.19;5063464;28;20512;-71
2022/12/19 03:55:43;;;;;;;48.67;24.43;;;;;;;4.18;60.09;98280.25;5040958;28;20183;-71
2022/12/19 03:58:15;;;;;;;48.77;25.70;;;;;;;4.19;59.51;98275.00;5053610;28;20452;-72
2022/12/19 04:00:46;;;;;;;44.33;25.03;;;;;;;4.23;60.26;98275.66;5059151;28;20511;-71
2022/12/19 04:03:12;;;;;;;50.00;24.90;;;;;;;4.25;59.90;98272.03;5055063;28;20829;-71
2022/12/19 04:05:40;;;;;;;43.30;24.90;;;;;;;4.26;59.68;98275.50;5061795;28;20453;-71
2022/12/19 04:08:07;;;;;;;46.20;25.30;;;;;;;4.31;59.96;98276.03;5063084;28;20452;-73
2022/12/19 04:10:35;;;;;;;47.43;25.50;;;;;;;4.26;59.56;98280.69;5061585;28;20513;-71
2022/12/19 04:13:07;;;;;;;47.53;25.83;;;;;;;4.23;59.86;98289.44;5059376;28;20994;-70
2022/12/19 04:15:47;;;;;;;43.33;23.33;;;;;;;4.21;59.81;98290.47;5061504;28;20414;-71
2022/12/19 04:18:13;;;;;;;47.83;24.30;;;;;;;4.22;59.79;98292.97;5054373;28;20891;-71
2022/12/19 04:20:41;;;;;;;45.83;22.47;;;;;;;4.21;60.66;98287.88;5053832;28;20434;-74
2022/12/19 04:23:15;;;;;;;42.77;22.70;;;;;;;4.14;60.57;98297.75;5058528;28;20203;-72
2022/12/19 04:25:45;;;;;;;41.20;21.03;;;;;;;4.10;60.74;98299.69;5045576;28;20567;-72
2022/12/19 04:28:18;;;;;;;40.47;22.00;;;;;;;4.18;60.21;98301.88;5060296;28;20436;-73
2022/12/19 04:30:44;;;;;;;43.33;22.23;;;;;;;4.24;60.16;98300.69;5071909;28;20417;-71
2022/12/19 04:33:09;;;;;;;44.60;22.13;;;;;;;4.17;60.10;98301.94;5056776;28;20451;-72
2022/12/19 04:35:35;;;;;;;45.10;22.33;;;;;;;4.20;60.41;98301.78;5072939;28;20507;-73
2022/12/19 04:38:01;;;;;;;39.33;21.27;;;;;;;4.24;61.02;98300.69;5068111;28;20229;-72
2022/12/19 04:40:26;;;;;;;42.87;21.83;;;;;;;4.26;60.83;98304.84;5054602;28;20178;-69
2022/12/19 04:42:52;;;;;;;36.87;21.57;;;;;;;4.34;60.94;98301.84;5068106;28;20209;-69
2022/12/19 04:45:17;;;;;;;44.77;21.87;;;;;;;4.38;61.28;98307.69;5070988;28;20262;-72
2022/12/19 04:47:43;;;;;;;43.97;22.27;;;;;;;4.36;60.59;98300.00;5072284;28;20261;-69
2022/12/19 04:50:08;;;;;;;43.80;24.37;;;;;;;4.38;60.96;98298.16;5066800;28;20194;-70
2022/12/19 04:52:34;;;;;;;39.73;21.03;;;;;;;4.44;61.24;98296.97;5059691;28;20179;-73
2022/12/19 04:54:59;;;;;;;37.80;21.63;;;;;;;4.42;61.12;98291.03;5064360;28;20694;-70
2022/12/19 04:57:28;;;;;;;37.97;20.70;;;;;;;4.49;60.43;98299.31;5069890;28;20236;-71
2022/12/19 04:59:54;;;;;;;40.53;22.47;;;;;;;4.56;60.54;98301.47;5066133;28;20210;-70
2022/12/19 05:02:19;;;;;;;42.60;21.80;;;;;;;4.50;61.34;98295.78;5069148;28;20491;-72
2022/12/19 05:04:45;;;;;;;43.87;21.40;;;;;;;4.53;61.21;98287.84;5072438;28;20265;-70
2022/12/19 05:07:12;;;;;;;41.70;22.60;;;;;;;4.55;61.34;98289.41;5071518;28;20243;-72
2022/12/19 05:09:37;;;;;;;43.50;23.00;;;;;;;4.60;61.39;98281.34;5070424;28;20203;-69
2022/12/19 05:12:03;;;;;;;41.10;22.00;;;;;;;4.69;61.57;98280.81;5072287;28;20421;-71
2022/12/19 05:14:28;;;;;;;43.87;22.10;;;;;;;4.70;60.97;98277.28;5061694;28;20268;-71
2022/12/19 05:16:54;;;;;;;42.10;21.90;;;;;;;4.72;60.86;98278.03;5066759;28;20265;-72
2022/12/19 05:19:19;;;;;;;44.93;22.17;;;;;;;4.77;61.34;98277.78;5064950;28;20209;-73
2022/12/19 05:21:45;;;;;;;36.57;19.80;;;;;;;4.77;61.26;98269.97;5071708;28;20277;-72
2022/12/19 05:24:10;;;;;;;39.77;20.13;;;;;;;4.79;61.50;98277.69;5067001;28;20222;-72
2022/12/19 05:26:36;;;;;;;36.27;19.90;;;;;;;4.80;61.23;98268.94;5064150;28;20191;-72
2022/12/19 05:29:01;;;;;;;40.63;20.60;;;;;;;4.83;61.67;98271.38;5066651;28;20260;-72
2022/12/19 05:31:27;;;;;;;41.40;21.93;;;;;;;4.74;62.31;98271.00;5065136;28;20549;-74
2022/12/19 05:33:52;;;;;;;48.57;23.50;;;;;;;4.69;62.56;98272.19;5071667;28;20198;-72
2022/12/19 05:36:18;;;;;;;46.67;23.33;;;;;;;4.74;62.81;98277.94;5067615;28;20558;-72
2022/12/19 05:38:44;;;;;;;42.43;22.80;;;;;;;4.85;62.11;98270.34;5064067;28;20206;-72
2022/12/19 05:41:18;;;;;;;50.20;24.00;;;;;;;4.89;61.89;98265.84;5067396;28;20421;-72
2022/12/19 05:43:44;;;;;;;44.57;22.90;;;;;;;4.92;61.53;98273.44;5067537;28;20241;-73
2022/12/19 05:46:10;;;;;;;44.30;21.60;;;;;;;4.94;62.10;98268.16;5068154;28;20429;-73
2022/12/19 05:48:36;;;;;;;42.97;22.33;;;;;;;4.95;61.63;98270.66;5070166;28;20524;-73
2022/12/19 05:51:02;;;;;;;36.00;20.53;;;;;;;4.93;61.59;98272.50;5068086;28;20649;-73
2022/12/19 05:53:27;;;;;;;35.90;18.87;;;;;;;4.91;61.36;98262.22;5069690;28;20427;-72
2022/12/19 05:56:22;;;;;;;44.33;23.87;;;;;;;4.79;61.70;98259.50;5066823;28;20549;-72
2022/12/19 05:58:48;;;;;;;37.60;19.67;;;;;;;4.75;62.08;98264.88;5045579;28;20214;-72
2022/12/19 06:01:17;;;;;;;36.77;19.67;;;;;;;4.68;62.32;98263.56;5069512;28;20417;-72
2022/12/19 06:03:43;;;;;;;39.73;21.17;;;;;;;4.75;61.56;98257.09;5071237;28;20217;-72
2022/12/19 06:06:11;;;;;;;39.00;20.30;;;;;;;4.79;61.88;98256.91;5069142;28;20428;-74
2022/12/19 06:08:37;;;;;;;35.83;20.10;;;;;;;4.85;62.37;98253.94;5066714;28;20199;-72
2022/12/19 06:11:04;;;;;;;37.93;20.30;;;;;;;4.82;61.82;98248.91;5058357;28;20936;-73
2022/12/19 06:13:30;;;;;;;40.70;21.03;;;;;;;4.82;62.26;98243.72;5051037;28;20579;-70
2022/12/19 06:15:57;;;;;;;41.13;21.37;;;;;;;4.82;62.28;98254.13;5063844;28;20527;-71
2022/12/19 06:18:23;;;;;;;44.93;21.60;;;;;;;4.78;62.37;98257.84;5070477;28;20209;-72
2022/12/19 06:20:59;;;;;;;40.60;19.80;;;;;;;4.82;62.76;98252.38;5062793;28;20416;-71
2022/12/19 06:23:25;;;;;;;37.93;20.07;;;;;;;4.85;62.75;98248.75;5063192;28;20293;-71
2022/12/19 06:25:50;;;;;;;38.90;20.20;;;;;;;4.92;62.77;98247.44;5062149;28;20840;-71
2022/12/19 06:28:15;;;;;;;41.60;18.87;;;;;;;4.96;62.29;98255.91;5070179;28;20685;-73
2022/12/19 06:30:41;;;;;;;40.40;21.17;;;;;;;5.04;62.67;98259.72;5064871;28;20202;-71
2022/12/19 06:33:06;;;;;;;40.00;19.00;;;;;;;5.05;62.90;98255.38;5059617;28;20246;-72
2022/12/19 06:35:32;;;;;;;40.27;21.60;;;;;;;5.13;62.65;98247.13;5070893;28;20217;-71
2022/12/19 06:37:57;;;;;;;35.20;19.20;;;;;;;5.13;62.37;98247.94;5062328;28;20197;-70
2022/12/19 06:43:07;;;;;;;35.33;19.27;;;;;;;5.11;62.34;98249.78;5068111;28;20285;-71
2022/12/19 06:45:33;;;;;;;38.37;19.23;;;;;;;5.13;62.52;98247.13;5066319;28;20520;-73
2022/12/19 06:47:58;;;;;;;45.33;20.10;;;;;;;5.17;62.75;98252.03;5070003;28;20205;-69
2022/12/19 06:50:24;;;;;;;32.90;18.20;;;;;;;5.20;62.99;98249.25;5062073;28;20633;-70
2022/12/19 06:52:50;;;;;;;34.90;19.27;;;;;;;5.26;62.26;98248.03;5071031;28;20178;-70
2022/12/19 06:55:15;;;;;;;41.10;20.23;;;;;;;5.28;62.19;98243.59;5070783;28;20417;-71
2022/12/19 06:57:44;;;;;;;31.73;18.17;;;;;;;5.31;62.87;98256.38;5066195;28;20601;-70
2022/12/19 07:00:12;;;;;;;37.53;17.60;;;;;;;5.31;62.81;98243.38;5063252;28;20182;-73
2022/12/19 07:02:42;;;;;;;38.47;18.43;;;;;;;5.33;62.69;98257.13;5065273;28;20464;-70
2022/12/19 07:05:08;;;;;;;37.93;20.27;;;;;;;5.37;62.58;98256.03;5070511;28;20431;-70
2022/12/19 07:07:34;;;;;;;30.83;17.10;;;;;;;5.45;62.57;98249.50;5055125;28;20422;-69
2022/12/19 07:09:59;;;;;;;36.77;18.27;;;;;;;5.45;62.62;98247.75;5057062;28;20449;-69
2022/12/19 07:12:25;;;;;;;33.33;18.67;;;;;;;5.42;62.81;98247.13;5061587;28;20526;-71
2022/12/19 07:14:51;;;;;;;34.83;18.60;;;;;;;5.45;62.76;98242.56;5068874;28;20194;-70
2022/12/19 07:17:17;;;;;;;32.97;18.90;;;;;;;5.49;62.84;98244.00;5062214;28;20178;-72
2022/12/19 07:19:42;;;;;;;40.27;19.70;;;;;;;5.53;62.85;98244.69;5069299;28;20592;-72
2022/12/19 07:22:08;;;;;;;36.03;19.20;;;;;;;5.57;62.30;98251.34;5068656;28;20429;-72
2022/12/19 07:24:34;;;;;;;33.30;18.10;;;;;;;5.59;62.59;98243.47;5069236;28;20175;-70
2022/12/19 07:26:59;;;;;;;46.20;19.10;;;;;;;5.61;62.19;98245.03;5066594;28;20597;-74
2022/12/19 07:29:25;;;;;;;38.03;19.10;;;;;;;5.60;62.35;98245.97;5062138;28;20289;-69
2022/12/19 07:31:51;;;;;;;36.80;19.23;;;;;;;5.60;62.30;98240.75;5066090;28;20216;-71
2022/12/19 07:34:16;;;;;;;29.20;17.07;;;;;;;5.64;62.43;98241.41;5062566;28;20182;-68
2022/12/19 07:36:42;;;;;;;30.50;17.27;;;;;;;5.66;62.14;98245.59;5065262;28;20646;-68
2022/12/19 07:39:07;;;;;;;30.77;17.17;;;;;;;5.66;62.57;98250.78;5060431;28;20209;-70
2022/12/19 07:41:35;;;;;;;34.53;18.40;;;;;;;5.72;62.23;98266.94;5066627;28;20265;-72
2022/12/19 07:44:01;;;;;;;34.10;18.20;;;;;;;5.74;62.31;98267.69;5069402;28;20224;-71
2022/12/19 07:46:28;;;;;;;36.20;18.30;;;;;;;5.74;62.17;98262.47;5069649;28;20413;-72
2022/12/19 07:48:57;;;;;;;34.37;19.20;;;;;;;5.68;62.49;98259.31;5060574;28;20263;-70
2022/12/19 07:51:22;;;;;;;34.27;18.67;;;;;;;5.59;62.59;98249.50;5063740;28;20428;-70
2022/12/19 07:53:48;;;;;;;31.23;18.30;;;;;;;5.63;62.48;98243.19;5065679;28;20432;-70
2022/12/19 07:56:14;;;;;;;35.13;19.50;;;;;;;5.67;62.66;98247.22;5067581;28;20186;-71
2022/12/19 07:58:39;;;;;;;34.37;18.47;;;;;;;5.75;62.41;98254.56;5058370;28;20779;-70
2022/12/19 08:01:05;;;;;;;33.43;19.17;;;;;;;5.75;62.51;98254.56;5068854;28;20461;-77
2022/12/19 08:03:31;;;;;;;29.00;16.70;;;;;;;5.81;62.29;98254.19;5061608;28;20213;-71
2022/12/19 08:06:00;;;;;;;30.93;17.80;;;;;;;5.83;62.68;98265.34;5065256;28;20182;-70
2022/12/19 08:08:27;;;;;;;35.33;18.53;;;;;;;5.87;62.42;98263.38;5063444;28;20195;-72
2022/12/19 08:10:52;;;;;;;32.60;17.70;;;;;;;5.83;62.44;98262.75;5054467;28;20444;-71
2022/12/19 08:13:18;;;;;;;37.57;18.60;;;;;;;5.83;62.35;98261.88;5056035;28;20428;-70
2022/12/19 08:15:43;;;;;;;36.27;18.33;;;;;;;5.85;62.34;98270.44;5061011;28;20221;-72
2022/12/19 08:18:08;;;;;;;36.97;18.03;;;;;;;5.87;62.32;98267.72;5062157;28;20293;-73
2022/12/19 08:20:34;;;;;;;36.73;17.23;;;;;;;5.83;62.60;98267.09;5069022;28;20646;-71
2022/12/19 08:22:59;;;;;;;32.53;17.60;;;;;;;5.91;62.51;98275.28;5065911;28;20237;-71
2022/12/19 08:25:26;;;;;;;31.60;17.30;;;;;;;5.98;62.44;98286.97;5069841;28;20213;-74
2022/12/19 08:27:52;;;;;;;36.47;19.30;;;;;;;6.03;62.13;98280.66;5068617;28;20239;-71
2022/12/19 08:30:17;;;;;;;32.30;18.23;;;;;;;6.05;62.25;98277.03;5070805;28;20420;-72
2022/12/19 08:32:44;;;;;;;34.37;19.13;;;;;;;6.02;62.21;98271.19;5063497;28;20226;-70
2022/12/19 08:35:09;;;;;;;29.17;17.07;;;;;;;6.04;62.53;98269.31;5072956;28;20190;-69
2022/12/19 08:37:34;;;;;;;36.30;18.20;;;;;;;6.08;62.07;98263.81;5066209;28;20428;-71
2022/12/19 08:40:00;;;;;;;31.60;18.10;;;;;;;6.14;62.32;98267.78;5069306;28;20735;-72
2022/12/19 08:42:25;;;;;;;33.83;17.83;;;;;;;6.20;62.13;98272.59;5067678;28;20209;-69
2022/12/19 08:44:51;;;;;;;35.33;17.93;;;;;;;6.27;62.10;98263.47;5059010;28;20196;-71
2022/12/19 08:47:16;;;;;;;34.47;19.00;;;;;;;6.29;61.85;98268.56;5054435;28;20266;-71
2022/12/19 08:49:42;;;;;;;35.27;17.57;;;;;;;6.35;62.02;98264.72;5058597;28;20233;-70
2022/12/19 08:52:07;;;;;;;35.67;19.03;;;;;;;6.40;61.37;98273.09;5057840;28;20732;-69
2022/12/19 08:54:33;;;;;;;36.33;20.07;;;;;;;6.40;61.81;98267.88;5057032;28;20665;-72
2022/12/19 08:56:58;;;;;;;35.93;19.80;;;;;;;6.39;61.82;98258.41;5066030;28;20914;-69
2022/12/19 08:59:23;;;;;;;38.60;21.80;;;;;;;6.40;61.95;98260.88;5059552;28;20203;-69
2022/12/19 09:01:51;;;;;;;39.40;22.20;;;;;;;6.44;61.77;98261.53;5063930;28;20325;-71
2022/12/19 09:04:17;;;;;;;37.10;21.40;;;;;;;6.48;61.52;98255.19;5053858;28;20264;-70
2022/12/19 09:06:42;;;;;;;35.03;20.67;;;;;;;6.49;62.13;98251.66;5060358;28;20499;-70
2022/12/19 09:09:08;;;;;;;32.50;19.60;;;;;;;6.48;61.96;98243.94;5061710;28;20202;-71
2022/12/19 09:11:33;;;;;;;41.13;20.33;;;;;;;6.56;61.63;98250.28;5058515;28;20250;-70
2022/12/19 09:13:58;;;;;;;32.40;19.30;;;;;;;6.62;61.42;98246.44;5059454;28;20270;-71
2022/12/19 09:16:26;;;;;;;38.57;20.03;;;;;;;6.57;61.62;98236.34;5069592;28;21224;-73
2022/12/19 09:18:53;;;;;;;36.30;20.40;;;;;;;6.60;61.45;98245.75;5063974;28;20207;-70
2022/12/19 09:21:22;;;;;;;37.10;20.97;;;;;;;6.65;61.87;98248.03;5053721;28;20414;-70
2022/12/19 09:23:49;;;;;;;30.00;19.90;;;;;;;6.65;61.58;98248.84;5057995;28;20464;-71
2022/12/19 09:26:15;;;;;;;34.67;20.47;;;;;;;6.74;61.79;98252.63;5062430;28;20924;-73
2022/12/19 09:28:40;;;;;;;33.67;20.53;;;;;;;6.78;61.86;98248.03;5064082;28;20502;-70
2022/12/19 09:31:10;;;;;;;33.63;19.37;;;;;;;6.81;61.71;98253.06;5061702;28;20373;-71
2022/12/19 09:33:35;;;;;;;29.30;17.30;;;;;;;6.88;61.06;98246.47;5057921;28;20201;-74
2022/12/19 09:36:01;;;;;;;32.73;17.20;;;;;;;6.94;61.21;98253.03;5062536;28;20422;-73
2022/12/19 09:38:28;;;;;;;32.73;16.73;;;;;;;6.98;61.07;98244.09;5062627;28;20207;-73
2022/12/19 09:40:56;;;;;;;33.27;18.17;;;;;;;7.01;60.91;98249.94;5061949;28;20413;-71
2022/12/19 09:43:43;;;;;;;31.90;17.90;;;;;;;7.09;61.26;98249.41;5058513;28;20971;-72
2022/12/19 09:46:19;;;;;;;28.63;17.00;;;;;;;7.14;60.96;98255.16;5066414;28;20809;-72
2022/12/19 09:48:45;;;;;;;28.50;15.77;;;;;;;7.16;60.92;98250.69;5050848;28;20437;-72
2022/12/19 09:51:16;;;;;;;31.83;19.65;;;;;;;7.16;61.19;98248.06;5068816;28;20468;-72
2022/12/19 09:53:53;;;;;;;32.80;18.17;;;;;;;7.17;60.73;98243.66;5070666;28;20182;-73
2022/12/19 09:56:19;;;;;;;27.97;16.87;;;;;;;7.16;60.16;98237.63;5069808;28;20511;-71
2022/12/19 09:58:53;;;;;;;25.60;16.43;;;;;;;7.18;60.31;98225.31;5068094;28;20540;-73
2022/12/19 10:01:23;;;;;;;25.75;17.00;;;;;;;7.16;60.52;98236.78;5063835;28;20514;-73
2022/12/19 10:04:11;;;;;;;24.90;15.93;;;;;;;7.19;60.27;98226.97;5047811;28;20210;-72
2022/12/19 10:06:37;;;;;;;23.47;13.97;;;;;;;7.27;60.03;98228.25;5050013;28;20413;-71
2022/12/19 10:09:03;;;;;;;28.70;16.17;;;;;;;7.44;59.60;98230.47;5064350;28;20533;-70
2022/12/19 10:11:46;;;;;;;23.93;15.10;;;;;;;7.48;59.48;98226.72;5063257;28;20507;-71
2022/12/19 10:14:30;;;;;;;22.00;14.60;;;;;;;7.59;59.66;98225.13;5070770;28;20536;-72
2022/12/19 10:17:01;;;;;;;22.80;15.30;;;;;;;7.62;59.78;98212.72;5043467;28;20186;-72
2022/12/19 10:19:58;;;;;;;25.10;14.93;;;;;;;7.70;59.25;98204.31;5066759;28;20441;-73
2022/12/19 10:22:32;;;;;;;22.53;14.90;;;;;;;7.72;58.97;98212.88;5061055;28;20865;-70
2022/12/19 10:25:13;;;;;;;27.43;16.40;;;;;;;7.75;59.28;98207.44;5063474;28;20500;-74
2022/12/19 10:28:15;;;;;;;26.50;16.80;;;;;;;7.77;59.54;98205.56;5052060;28;20408;-72
2022/12/19 10:30:52;;;;;;;28.00;18.10;;;;;;;7.84;59.29;98214.63;5052610;28;20940;-72
2022/12/19 10:33:25;;;;;;;30.40;21.10;;;;;;;7.88;59.71;98204.78;5050775;28;20842;-72
2022/12/19 10:35:56;;;;;;;31.17;20.47;;;;;;;8.03;59.29;98195.03;5055832;28;20440;-72
2022/12/19 10:38:28;;;;;;;33.33;21.20;;;;;;;8.24;58.56;98202.22;5053333;28;20438;-71
2022/12/19 10:41:09;;;;;;;32.37;21.33;;;;;;;8.44;58.30;98203.34;5059071;28;20523;-71
2022/12/19 10:43:56;;;;;;;35.25;22.85;;;;;;;8.55;58.14;98189.53;5049040;28;20835;-71
2022/12/19 10:46:36;;;;;;;37.13;21.87;;;;;;;8.72;57.33;98185.63;5061984;28;20186;-71
2022/12/19 10:49:12;;;;;;;25.20;16.10;;;;;;;8.82;57.52;98186.59;5064049;28;20448;-71
2022/12/19 10:51:37;;;;;;;28.33;15.90;;;;;;;8.89;56.51;98192.19;5055879;28;20416;-72
2022/12/19 10:54:03;;;;;;;27.23;16.33;;;;;;;9.05;56.17;98203.16;5057934;28;20986;-70
2022/12/19 10:56:29;;;;;;;24.00;13.50;;;;;;;9.11;56.19;98187.91;5069254;28;20190;-71
2022/12/19 10:58:57;;;;;;;22.70;12.63;;;;;;;9.13;55.53;98179.03;5066735;28;20205;-70
2022/12/19 11:01:27;;;;;;;21.20;14.20;;;;;;;9.13;55.86;98172.94;5069840;28;20427;-71
2022/12/19 11:04:18;;;;;;;21.60;14.23;;;;;;;9.22;55.52;98156.53;5066258;28;20444;-70
2022/12/19 11:07:06;;;;;;;41.80;21.83;;;;;;;9.31;55.80;98155.81;5052640;28;20460;-70
2022/12/19 11:09:41;;;;;;;36.20;19.00;;;;;;;9.43;55.17;98156.63;5066052;28;20428;-70
2022/12/19 11:12:06;;;;;;;30.67;15.80;;;;;;;9.50;54.66;98151.72;5066144;28;20425;-70
2022/12/19 11:14:33;;;;;;;36.60;16.77;;;;;;;9.58;55.00;98151.94;5062288;28;20500;-69
2022/12/19 11:16:59;;;;;;;42.00;18.20;;;;;;;9.65;54.92;98154.91;5059789;28;20183;-71
2022/12/19 11:19:34;;;;;;;24.43;14.63;;;;;;;9.75;54.46;98157.63;5070349;28;21903;-69
2022/12/19 11:22:04;;;;;;;22.30;12.90;;;;;;;9.71;54.01;98156.19;5069255;28;20220;-69
2022/12/19 11:24:51;;;;;;;22.53;14.30;;;;;;;9.80;53.68;98150.22;5061300;28;20508;-72
2022/12/19 11:27:36;;;;;;;23.70;14.40;;;;;;;9.81;53.67;98141.41;5044550;28;20424;-70
2022/12/19 11:30:07;;;;;;;18.10;12.77;;;;;;;9.86;53.33;98134.00;5058627;28;20520;-71
2022/12/19 11:32:38;;;;;;;19.70;13.00;;;;;;;10.07;53.95;98136.66;5044380;28;20591;-70
2022/12/19 11:35:15;;;;;;;26.43;12.60;;;;;;;10.26;53.42;98141.22;5047572;28;20807;-73
2022/12/19 11:37:50;;;;;;;25.37;14.03;;;;;;;10.32;52.86;98133.81;5044197;28;20425;-70
2022/12/19 11:40:38;;;;;;;21.70;11.73;;;;;;;10.22;52.50;98126.69;5050652;28;20830;-71